Time;durP1;ratioP1;P1;durP2;ratioP2;P2;SDS_P1;SDS_P2;PMS_P1;PMS_P2;Temp;Humidity;BMP_temperature;BMP_pressure;BME280_temperature;BME280_humidity;BME280_pressure;Samples;Min_cycle;Max_cycle;Signal;HPM_P1;HPM_P2
2023/03/31 00:01:28;;;;;;;0.43;0.40;;;;;;;;;;5023319;28;20025;-76
2023/03/31 00:04:00;;;;;;;1.35;0.70;;;;;;;;;;5016168;28;20033;-76
2023/03/31 00:06:26;;;;;;;2.70;0.70;;;;;;;;;;5024918;28;20031;-77
2023/03/31 00:08:52;;;;;;;2.13;0.40;;;;;;;;;;5020387;28;20037;-76
2023/03/31 00:11:20;;;;;;;0.65;0.47;;;;;;;;;;5017974;28;20036;-76
2023/03/31 00:13:46;;;;;;;0.40;0.40;;;;;;;;;;5021312;28;20033;-76
2023/03/31 00:16:12;;;;;;;0.30;0.30;;;;;;;;;;5023809;28;20028;-76
2023/03/31 00:18:46;;;;;;;1.00;0.50;;;;;;;;;;5025812;28;20025;-76
2023/03/31 00:21:13;;;;;;;0.68;0.60;;;;;;;;;;5024089;28;20029;-77
2023/03/31 00:23:39;;;;;;;0.68;0.40;;;;;;;;;;5023362;28;20037;-77
2023/03/31 00:26:06;;;;;;;0.40;0.40;;;;;;;;;;5010002;28;20054;-76
2023/03/31 00:28:32;;;;;;;0.43;0.32;;;;;;;;;;5020026;28;20084;-76
2023/03/31 00:31:00;;;;;;;0.32;0.32;;;;;;;;;;5025061;28;20036;-77
2023/03/31 00:33:26;;;;;;;1.45;0.32;;;;;;;;;;5023294;28;20562;-77
2023/03/31 00:35:52;;;;;;;0.47;0.47;;;;;;;;;;5026543;28;20029;-76
2023/03/31 00:38:20;;;;;;;0.70;0.60;;;;;;;;;;5023208;28;20026;-76
2023/03/31 00:40:46;;;;;;;0.63;0.63;;;;;;;;;;5022122;28;20049;-76
2023/03/31 00:43:25;;;;;;;1.17;0.60;;;;;;;;;;5016824;28;20135;-76
2023/03/31 00:45:51;;;;;;;0.93;0.55;;;;;;;;;;5019863;28;20025;-76
2023/03/31 00:48:19;;;;;;;0.45;0.45;;;;;;;;;;5023556;28;20577;-76
2023/03/31 00:50:48;;;;;;;0.30;0.30;;;;;;;;;;5015088;28;20483;-76
2023/03/31 00:53:17;;;;;;;0.77;0.50;;;;;;;;;;5008506;28;20145;-76
2023/03/31 00:55:48;;;;;;;0.40;0.40;;;;;;;;;;5018111;28;20041;-77
2023/03/31 00:58:18;;;;;;;0.40;0.40;;;;;;;;;;5026580;28;20045;-76
2023/03/31 01:00:46;;;;;;;0.50;0.47;;;;;;;;;;5022103;28;20385;-77
2023/03/31 01:03:37;;;;;;;0.60;0.60;;;;;;;;;;5018964;28;20103;-76
2023/03/31 01:06:04;;;;;;;0.82;0.63;;;;;;;;;;5021817;28;20040;-76
2023/03/31 01:08:30;;;;;;;0.30;0.30;;;;;;;;;;5016985;28;20211;-76
2023/03/31 01:10:58;;;;;;;0.45;0.35;;;;;;;;;;5015570;28;20045;-76
2023/03/31 01:13:25;;;;;;;0.50;0.50;;;;;;;;;;5018644;28;20030;-76
2023/03/31 01:15:51;;;;;;;0.47;0.47;;;;;;;;;;5021446;28;20034;-76
2023/03/31 01:18:20;;;;;;;0.50;0.50;;;;;;;;;;5025023;28;20021;-76
2023/03/31 01:21:06;;;;;;;0.38;0.38;;;;;;;;;;5019758;28;20152;-76
2023/03/31 01:23:51;;;;;;;0.70;0.30;;;;;;;;;;5021669;28;20075;-76
2023/03/31 01:26:37;;;;;;;0.75;0.75;;;;;;;;;;5025908;28;20051;-76
2023/03/31 01:29:30;;;;;;;0.68;0.60;;;;;;;;;;5016324;28;20040;-76
2023/03/31 01:32:17;;;;;;;3.25;0.70;;;;;;;;;;5021518;28;20029;-76
2023/03/31 01:34:46;;;;;;;0.40;0.40;;;;;;;;;;5027570;28;20028;-77
2023/03/31 01:37:20;;;;;;;0.38;0.38;;;;;;;;;;5023310;28;20397;-76
2023/03/31 01:40:06;;;;;;;0.75;0.47;;;;;;;;;;5027682;28;20025;-76
2023/03/31 01:42:37;;;;;;;0.43;0.22;;;;;;;;;;5026639;28;20022;-76
2023/03/31 01:45:19;;;;;;;1.08;0.75;;;;;;;;;;5026064;28;20144;-76
2023/03/31 01:47:47;;;;;;;0.80;0.57;;;;;;;;;;5022479;28;20031;-76
2023/03/31 01:50:12;;;;;;;0.70;0.30;;;;;;;;;;5022353;28;20473;-76
2023/03/31 01:52:46;;;;;;;0.30;0.30;;;;;;;;;;5019672;28;20037;-77
2023/03/31 01:55:18;;;;;;;0.40;0.40;;;;;;;;;;5018209;28;20148;-77
2023/03/31 01:57:55;;;;;;;0.40;0.40;;;;;;;;;;5027703;28;20029;-77
2023/03/31 02:00:32;;;;;;;0.30;0.30;;;;;;;;;;5028900;28;20120;-76
2023/03/31 02:03:31;;;;;;;0.40;0.40;;;;;;;;;;5023984;28;20038;-76
2023/03/31 02:06:00;;;;;;;2.65;0.50;;;;;;;;;;4984871;28;20045;-77
2023/03/31 02:08:29;;;;;;;0.47;0.30;;;;;;;;;;5022935;28;20108;-76
2023/03/31 02:10:56;;;;;;;0.57;0.47;;;;;;;;;;5024281;28;20029;-76
2023/03/31 02:13:23;;;;;;;0.32;0.32;;;;;;;;;;5020048;28;20029;-76
2023/03/31 02:15:51;;;;;;;2.55;0.50;;;;;;;;;;5026716;28;20021;-76
2023/03/31 02:18:19;;;;;;;0.52;0.52;;;;;;;;;;5020145;28;20024;-76
2023/03/31 02:20:47;;;;;;;0.57;0.55;;;;;;;;;;5021821;28;20540;-76
2023/03/31 02:23:14;;;;;;;0.50;0.45;;;;;;;;;;5026349;28;20381;-76
2023/03/31 02:25:48;;;;;;;0.93;0.60;;;;;;;;;;5019078;28;20456;-76
2023/03/31 02:28:19;;;;;;;0.25;0.25;;;;;;;;;;5020785;28;20072;-77
2023/03/31 02:31:03;;;;;;;0.80;0.52;;;;;;;;;;5027587;28;20392;-76
2023/03/31 02:33:29;;;;;;;0.70;0.35;;;;;;;;;;5024169;28;20055;-76
2023/03/31 02:35:55;;;;;;;0.40;0.40;;;;;;;;;;5023826;28;20037;-76
2023/03/31 02:38:21;;;;;;;0.65;0.40;;;;;;;;;;5023721;28;20029;-76
2023/03/31 02:40:47;;;;;;;0.60;0.47;;;;;;;;;;5024293;28;20020;-76
2023/03/31 02:43:13;;;;;;;0.30;0.30;;;;;;;;;;5023951;28;20523;-76
2023/03/31 02:45:48;;;;;;;1.65;0.60;;;;;;;;;;5026985;28;20526;-76
2023/03/31 02:48:22;;;;;;;0.70;0.57;;;;;;;;;;5013327;28;20033;-76
2023/03/31 02:51:10;;;;;;;0.20;0.20;;;;;;;;;;5022504;28;20030;-76
2023/03/31 02:53:44;;;;;;;0.55;0.47;;;;;;;;;;5017431;28;20057;-76
2023/03/31 02:56:28;;;;;;;1.38;0.50;;;;;;;;;;5020002;28;20030;-76
2023/03/31 02:58:57;;;;;;;0.45;0.40;;;;;;;;;;5019421;28;20044;-76
2023/03/31 03:01:43;;;;;;;0.40;0.40;;;;;;;;;;5023045;28;20026;-76
2023/03/31 03:04:15;;;;;;;0.30;0.30;;;;;;;;;;5024565;28;20516;-76
2023/03/31 03:06:52;;;;;;;3.60;0.30;;;;;;;;;;5028129;28;20463;-77
2023/03/31 03:09:44;;;;;;;0.20;0.20;;;;;;;;;;5023965;28;20126;-76
2023/03/31 03:12:15;;;;;;;0.80;0.57;;;;;;;;;;5025581;28;20380;-76
2023/03/31 03:14:41;;;;;;;0.70;0.45;;;;;;;;;;5025722;28;20136;-76
2023/03/31 03:17:12;;;;;;;1.63;0.60;;;;;;;;;;5019719;28;20532;-76
2023/03/31 03:19:40;;;;;;;0.40;0.40;;;;;;;;;;5023302;28;20028;-76
2023/03/31 03:22:06;;;;;;;1.92;0.68;;;;;;;;;;5022009;28;20036;-77
2023/03/31 03:24:33;;;;;;;0.98;0.45;;;;;;;;;;5025368;28;20026;-76
2023/03/31 03:26:59;;;;;;;0.63;0.30;;;;;;;;;;5023592;28;20531;-76
2023/03/31 03:29:26;;;;;;;0.40;0.40;;;;;;;;;;5026103;28;20029;-76
2023/03/31 03:31:52;;;;;;;1.88;0.82;;;;;;;;;;5020834;28;20037;-76
2023/03/31 03:34:19;;;;;;;0.40;0.40;;;;;;;;;;5024304;28;20041;-74
2023/03/31 03:36:45;;;;;;;0.25;0.25;;;;;;;;;;5020823;28;20028;-73
2023/03/31 03:39:11;;;;;;;0.30;0.30;;;;;;;;;;5025913;28;20116;-74
2023/03/31 03:41:37;;;;;;;0.30;0.30;;;;;;;;;;5015477;28;20029;-74
2023/03/31 03:44:03;;;;;;;2.28;0.30;;;;;;;;;;5021015;28;20113;-74
2023/03/31 03:46:29;;;;;;;0.43;0.43;;;;;;;;;;5022386;28;20033;-74
2023/03/31 03:48:55;;;;;;;0.52;0.25;;;;;;;;;;5022196;28;20049;-73
2023/03/31 03:51:21;;;;;;;0.80;0.35;;;;;;;;;;5019981;28;20038;-74
2023/03/31 03:53:47;;;;;;;0.95;0.30;;;;;;;;;;5019562;28;20037;-74
2023/03/31 03:56:14;;;;;;;0.43;0.35;;;;;;;;;;5011199;28;20030;-74
2023/03/31 03:58:40;;;;;;;1.17;0.60;;;;;;;;;;5024333;28;20013;-74
2023/03/31 04:01:06;;;;;;;0.52;0.50;;;;;;;;;;5023214;28;20084;-73
2023/03/31 04:03:31;;;;;;;1.35;0.55;;;;;;;;;;5023405;28;20096;-74
2023/03/31 04:05:58;;;;;;;0.30;0.30;;;;;;;;;;5014358;28;20041;-74
2023/03/31 04:08:24;;;;;;;0.40;0.30;;;;;;;;;;5009252;28;20393;-74
2023/03/31 04:10:50;;;;;;;0.30;0.30;;;;;;;;;;5025314;28;20369;-74
2023/03/31 04:13:17;;;;;;;1.00;0.77;;;;;;;;;;5025402;28;20025;-74
2023/03/31 04:15:43;;;;;;;0.95;0.88;;;;;;;;;;5024524;28;20387;-74
2023/03/31 04:18:09;;;;;;;0.30;0.30;;;;;;;;;;5017150;28;20487;-74
2023/03/31 04:20:38;;;;;;;0.80;0.40;;;;;;;;;;5026659;28;20076;-74
2023/03/31 04:23:08;;;;;;;0.63;0.40;;;;;;;;;;5025552;28;20037;-74
2023/03/31 04:25:37;;;;;;;0.60;0.30;;;;;;;;;;5026965;28;20043;-74
2023/03/31 04:28:05;;;;;;;0.30;0.30;;;;;;;;;;5027301;28;20029;-74
2023/03/31 04:30:31;;;;;;;0.68;0.40;;;;;;;;;;5015756;28;20412;-74
2023/03/31 04:33:01;;;;;;;0.20;0.20;;;;;;;;;;5018191;28;20025;-74
2023/03/31 04:35:41;;;;;;;0.57;0.43;;;;;;;;;;5021304;28;20129;-73
2023/03/31 04:38:07;;;;;;;2.08;1.08;;;;;;;;;;5008701;28;20157;-75
2023/03/31 04:40:34;;;;;;;0.32;0.32;;;;;;;;;;5021258;28;20029;-74
2023/03/31 04:43:00;;;;;;;0.35;0.35;;;;;;;;;;5019053;28;20034;-74
2023/03/31 04:45:26;;;;;;;0.40;0.40;;;;;;;;;;5021889;28;20484;-74
2023/03/31 04:47:55;;;;;;;0.73;0.50;;;;;;;;;;5020708;28;20036;-73
2023/03/31 04:50:21;;;;;;;0.80;0.80;;;;;;;;;;5025172;28;20030;-74
2023/03/31 04:52:47;;;;;;;0.55;0.43;;;;;;;;;;5026054;28;20064;-74
2023/03/31 04:55:13;;;;;;;0.75;0.50;;;;;;;;;;5023823;28;20037;-74
2023/03/31 04:57:39;;;;;;;0.45;0.45;;;;;;;;;;5023593;28;20025;-74
2023/03/31 05:00:09;;;;;;;0.85;0.60;;;;;;;;;;5027261;28;20034;-74
2023/03/31 05:02:35;;;;;;;0.30;0.30;;;;;;;;;;5023706;28;20040;-74
2023/03/31 05:05:01;;;;;;;1.35;0.57;;;;;;;;;;5024170;28;20954;-73
2023/03/31 05:07:27;;;;;;;4.28;0.57;;;;;;;;;;5026080;28;20719;-74
2023/03/31 05:09:53;;;;;;;1.00;0.50;;;;;;;;;;5014347;28;20061;-74
2023/03/31 05:12:19;;;;;;;0.45;0.30;;;;;;;;;;5014177;28;20502;-74
2023/03/31 05:14:45;;;;;;;0.85;0.40;;;;;;;;;;5025944;28;20017;-74
2023/03/31 05:17:11;;;;;;;1.15;0.28;;;;;;;;;;5012901;28;20030;-73
2023/03/31 05:19:37;;;;;;;0.32;0.32;;;;;;;;;;5013178;28;20497;-74
2023/03/31 05:22:03;;;;;;;1.23;0.60;;;;;;;;;;5012018;28;20696;-74
2023/03/31 05:24:29;;;;;;;0.63;0.63;;;;;;;;;;5019776;28;20125;-74
2023/03/31 05:26:56;;;;;;;0.30;0.30;;;;;;;;;;5022317;28;20552;-74
2023/03/31 05:29:22;;;;;;;0.77;0.45;;;;;;;;;;5020395;28;20040;-74
2023/03/31 05:31:48;;;;;;;1.00;0.82;;;;;;;;;;5018699;28;20044;-74
2023/03/31 05:34:15;;;;;;;0.40;0.40;;;;;;;;;;5025219;28;20526;-74
2023/03/31 05:36:42;;;;;;;1.08;0.50;;;;;;;;;;5017705;28;20029;-73
2023/03/31 05:39:08;;;;;;;0.93;0.60;;;;;;;;;;5027561;28;20456;-74
2023/03/31 05:41:34;;;;;;;0.32;0.30;;;;;;;;;;5025367;28;20117;-74
2023/03/31 05:44:03;;;;;;;0.65;0.65;;;;;;;;;;5022687;28;20049;-74
2023/03/31 05:46:29;;;;;;;0.25;0.25;;;;;;;;;;5011166;28;20121;-73
2023/03/31 05:48:55;;;;;;;2.05;0.52;;;;;;;;;;5018674;28;20118;-74
2023/03/31 05:51:22;;;;;;;0.25;0.25;;;;;;;;;;5022670;28;20585;-74
2023/03/31 05:53:48;;;;;;;0.32;0.32;;;;;;;;;;5021849;28;20056;-74
2023/03/31 05:56:14;;;;;;;0.32;0.32;;;;;;;;;;5014759;28;20967;-74
2023/03/31 05:58:40;;;;;;;0.28;0.25;;;;;;;;;;5024775;28;20030;-74
2023/03/31 06:01:10;;;;;;;0.32;0.32;;;;;;;;;;5018556;28;20026;-74
2023/03/31 06:03:38;;;;;;;2.00;0.40;;;;;;;;;;5019852;28;20069;-74
2023/03/31 06:06:06;;;;;;;0.95;0.60;;;;;;;;;;5026789;28;20268;-74
2023/03/31 06:08:32;;;;;;;0.40;0.40;;;;;;;;;;5023468;28;20072;-74
2023/03/31 06:10:59;;;;;;;0.60;0.50;;;;;;;;;;5031516;28;20044;-76
2023/03/31 06:13:25;;;;;;;0.32;0.32;;;;;;;;;;5018144;28;20071;-76
2023/03/31 06:15:57;;;;;;;0.52;0.52;;;;;;;;;;5030341;28;20093;-77
2023/03/31 06:18:24;;;;;;;0.30;0.30;;;;;;;;;;5028703;28;20031;-76
2023/03/31 06:20:51;;;;;;;0.85;0.85;;;;;;;;;;5033877;28;20025;-77
2023/03/31 06:23:17;;;;;;;1.48;0.40;;;;;;;;;;5032622;28;20025;-78
2023/03/31 06:25:43;;;;;;;0.43;0.40;;;;;;;;;;5022384;28;20033;-76
2023/03/31 06:28:08;;;;;;;0.88;0.30;;;;;;;;;;5012235;28;20026;-78
2023/03/31 06:30:35;;;;;;;0.30;0.30;;;;;;;;;;5022124;28;20388;-77
2023/03/31 06:33:01;;;;;;;0.38;0.38;;;;;;;;;;5024502;28;20060;-76
2023/03/31 06:35:26;;;;;;;0.55;0.35;;;;;;;;;;5020089;28;20022;-77
2023/03/31 06:37:52;;;;;;;0.30;0.30;;;;;;;;;;5032674;28;21706;-76
2023/03/31 06:40:18;;;;;;;0.52;0.50;;;;;;;;;;5032350;28;20025;-76
2023/03/31 06:42:44;;;;;;;0.50;0.50;;;;;;;;;;5027069;28;20029;-76
2023/03/31 06:45:10;;;;;;;0.55;0.38;;;;;;;;;;5022109;28;20098;-75
2023/03/31 06:47:37;;;;;;;0.20;0.20;;;;;;;;;;5023653;28;20135;-75
2023/03/31 06:50:04;;;;;;;0.43;0.30;;;;;;;;;;5026543;28;20046;-75
2023/03/31 06:52:31;;;;;;;0.45;0.25;;;;;;;;;;5025810;28;20399;-76
2023/03/31 06:54:57;;;;;;;0.30;0.30;;;;;;;;;;5016476;28;20041;-76
2023/03/31 06:57:23;;;;;;;0.35;0.35;;;;;;;;;;5015817;28;20026;-77
2023/03/31 06:59:49;;;;;;;3.03;0.47;;;;;;;;;;5009753;28;20025;-76
2023/03/31 07:02:15;;;;;;;0.32;0.30;;;;;;;;;;5007978;28;20022;-76
2023/03/31 07:04:41;;;;;;;0.20;0.20;;;;;;;;;;5007742;28;20014;-74
2023/03/31 07:07:07;;;;;;;0.45;0.30;;;;;;;;;;5012207;28;20021;-74
2023/03/31 07:09:33;;;;;;;2.30;0.50;;;;;;;;;;5029314;28;20076;-74
2023/03/31 07:11:59;;;;;;;1.10;0.63;;;;;;;;;;5039220;28;20032;-74
2023/03/31 07:14:25;;;;;;;3.95;0.85;;;;;;;;;;5023420;28;20025;-74
2023/03/31 07:16:51;;;;;;;0.40;0.40;;;;;;;;;;5014159;28;20029;-73
2023/03/31 07:19:18;;;;;;;1.25;0.40;;;;;;;;;;5029501;28;20060;-74
2023/03/31 07:21:44;;;;;;;0.40;0.40;;;;;;;;;;5028690;28;20088;-74
2023/03/31 07:24:10;;;;;;;0.35;0.35;;;;;;;;;;5037648;28;20517;-74
2023/03/31 07:26:36;;;;;;;1.85;0.57;;;;;;;;;;5035297;28;20523;-74
2023/03/31 07:29:02;;;;;;;0.38;0.38;;;;;;;;;;5027762;28;20033;-74
2023/03/31 07:31:28;;;;;;;0.40;0.40;;;;;;;;;;5028432;28;20045;-75
2023/03/31 07:33:54;;;;;;;0.30;0.30;;;;;;;;;;5032715;28;20032;-75
2023/03/31 07:36:20;;;;;;;0.63;0.50;;;;;;;;;;5016323;28;20017;-75
2023/03/31 07:38:48;;;;;;;0.95;0.30;;;;;;;;;;5031598;28;20084;-75
2023/03/31 07:41:14;;;;;;;1.52;0.57;;;;;;;;;;5014740;28;21416;-74
2023/03/31 07:43:40;;;;;;;0.55;0.38;;;;;;;;;;5029131;28;20050;-74
2023/03/31 07:46:07;;;;;;;2.25;0.63;;;;;;;;;;5029097;28;20048;-74
2023/03/31 07:48:33;;;;;;;0.50;0.50;;;;;;;;;;5012475;28;20032;-74
2023/03/31 07:50:59;;;;;;;0.55;0.43;;;;;;;;;;5011161;28;20481;-74
2023/03/31 07:53:27;;;;;;;0.65;0.50;;;;;;;;;;5025330;28;20032;-75
2023/03/31 07:55:53;;;;;;;0.30;0.30;;;;;;;;;;5037398;28;20122;-74
2023/03/31 07:58:19;;;;;;;0.70;0.60;;;;;;;;;;5023315;28;20033;-74
2023/03/31 08:00:45;;;;;;;0.30;0.30;;;;;;;;;;5015595;28;20068;-74
2023/03/31 08:03:11;;;;;;;3.72;0.60;;;;;;;;;;5014779;28;20026;-74
2023/03/31 08:05:37;;;;;;;0.43;0.38;;;;;;;;;;5009458;28;20257;-74
2023/03/31 08:08:03;;;;;;;0.63;0.50;;;;;;;;;;5032276;28;20084;-75
2023/03/31 08:10:30;;;;;;;0.20;0.20;;;;;;;;;;5028403;28;20034;-74
2023/03/31 08:12:56;;;;;;;0.63;0.40;;;;;;;;;;5028253;28;20022;-75
2023/03/31 08:15:22;;;;;;;0.98;0.40;;;;;;;;;;5023024;28;20468;-75
2023/03/31 08:17:48;;;;;;;0.20;0.20;;;;;;;;;;5023617;28;20057;-73
2023/03/31 08:20:14;;;;;;;0.43;0.40;;;;;;;;;;5026040;28;20045;-74
2023/03/31 08:22:40;;;;;;;0.95;0.60;;;;;;;;;;5010690;28;20033;-74
2023/03/31 08:25:07;;;;;;;1.52;0.35;;;;;;;;;;5011935;28;20021;-74
2023/03/31 08:27:34;;;;;;;0.50;0.40;;;;;;;;;;5014552;28;20033;-74
2023/03/31 08:30:03;;;;;;;1.55;0.43;;;;;;;;;;5025103;28;20435;-75
2023/03/31 08:32:29;;;;;;;1.67;0.60;;;;;;;;;;5036058;28;20033;-76
2023/03/31 08:34:55;;;;;;;0.57;0.30;;;;;;;;;;5040912;28;20029;-83
2023/03/31 08:37:21;;;;;;;0.47;0.47;;;;;;;;;;5031843;28;20033;-80
2023/03/31 08:39:47;;;;;;;1.38;0.82;;;;;;;;;;5032451;28;20029;-85
2023/03/31 08:42:19;;;;;;;0.30;0.30;;;;;;;;;;5030238;28;20415;-75
2023/03/31 08:44:54;;;;;;;1.13;0.55;;;;;;;;;;5034404;28;20060;-75
2023/03/31 08:47:22;;;;;;;2.50;0.90;;;;;;;;;;5035562;28;20419;-76
2023/03/31 08:49:53;;;;;;;0.22;0.22;;;;;;;;;;5022994;28;20553;-75
2023/03/31 08:52:22;;;;;;;1.02;0.57;;;;;;;;;;5034319;28;20021;-77
2023/03/31 08:54:51;;;;;;;0.63;0.38;;;;;;;;;;5032958;28;20033;-75
2023/03/31 08:57:20;;;;;;;0.50;0.50;;;;;;;;;;5034904;28;20033;-74
2023/03/31 08:59:46;;;;;;;2.35;0.82;;;;;;;;;;5034139;28;20024;-77
2023/03/31 09:02:21;;;;;;;0.40;0.30;;;;;;;;;;5037313;28;20021;-78
2023/03/31 09:05:05;;;;;;;1.10;0.38;;;;;;;;;;5033803;28;20029;-74
2023/03/31 09:07:40;;;;;;;0.80;0.40;;;;;;;;;;5026718;28;20021;-75
2023/03/31 09:10:12;;;;;;;0.85;0.40;;;;;;;;;;5037374;28;20115;-74
2023/03/31 09:12:53;;;;;;;1.58;0.68;;;;;;;;;;5027571;28;20033;-75
2023/03/31 09:15:19;;;;;;;;;;;;;;;;;;5026725;28;20025;-75
2023/03/31 09:17:45;;;;;;;0.30;0.30;;;;;;;;;;5027724;28;19984;-75
2023/03/31 09:20:33;;;;;;;0.88;0.60;;;;;;;;;;5027710;28;20060;-74
2023/03/31 09:23:10;;;;;;;1.65;0.57;;;;;;;;;;5017183;28;20030;-75
2023/03/31 09:25:40;;;;;;;1.98;0.77;;;;;;;;;;5011104;28;20030;-75
2023/03/31 09:28:11;;;;;;;0.40;0.20;;;;;;;;;;5019904;28;20676;-74
2023/03/31 09:30:37;;;;;;;0.52;0.50;;;;;;;;;;5030167;28;20082;-74
2023/03/31 09:33:03;;;;;;;1.70;0.55;;;;;;;;;;5032112;28;20033;-75
2023/03/31 09:35:32;;;;;;;0.40;0.40;;;;;;;;;;5032995;28;20412;-74
2023/03/31 09:37:58;;;;;;;1.08;0.68;;;;;;;;;;5018839;28;20037;-74
2023/03/31 09:40:26;;;;;;;0.77;0.77;;;;;;;;;;5009462;28;20033;-74
2023/03/31 09:42:57;;;;;;;1.75;1.15;;;;;;;;;;5009576;28;20189;-75
2023/03/31 09:45:23;;;;;;;0.47;0.45;;;;;;;;;;5027516;28;20034;-74
2023/03/31 09:47:50;;;;;;;0.47;0.43;;;;;;;;;;5027539;28;20084;-75
2023/03/31 09:50:17;;;;;;;0.22;0.22;;;;;;;;;;5027528;28;20038;-75
2023/03/31 09:52:48;;;;;;;1.17;0.32;;;;;;;;;;5026584;28;20772;-74
2023/03/31 09:55:19;;;;;;;0.50;0.50;;;;;;;;;;5025820;28;20751;-73
2023/03/31 09:57:45;;;;;;;;;;;;;;;;;;5030711;28;20025;-74
2023/03/31 10:00:15;;;;;;;0.77;0.52;;;;;;;;;;5030860;28;19913;-74
2023/03/31 10:02:44;;;;;;;1.08;0.50;;;;;;;;;;5030935;28;20400;-74
2023/03/31 10:05:19;;;;;;;1.58;0.80;;;;;;;;;;5030538;28;20029;-75
2023/03/31 10:07:45;;;;;;;3.03;1.02;;;;;;;;;;5030236;28;20041;-73
2023/03/31 10:10:17;;;;;;;0.70;0.40;;;;;;;;;;5031074;28;20049;-73
2023/03/31 10:12:49;;;;;;;0.30;0.30;;;;;;;;;;5028925;28;20067;-73
2023/03/31 10:15:20;;;;;;;1.60;0.75;;;;;;;;;;5028608;28;20060;-73
2023/03/31 10:17:46;;;;;;;0.70;0.47;;;;;;;;;;5012031;28;20041;-73
2023/03/31 10:20:22;;;;;;;0.38;0.35;;;;;;;;;;4993400;28;20381;-73
2023/03/31 10:22:50;;;;;;;0.95;0.40;;;;;;;;;;5019744;28;20025;-73
2023/03/31 10:25:17;;;;;;;0.75;0.73;;;;;;;;;;5023255;28;20025;-73
2023/03/31 10:27:45;;;;;;;1.98;0.50;;;;;;;;;;5028193;28;20057;-73
2023/03/31 10:30:12;;;;;;;2.65;0.60;;;;;;;;;;5030651;28;20033;-73
2023/03/31 10:32:40;;;;;;;0.52;0.43;;;;;;;;;;5025835;28;20577;-74
2023/03/31 10:35:08;;;;;;;0.88;0.52;;;;;;;;;;5026339;28;20029;-75
2023/03/31 10:37:35;;;;;;;1.30;0.60;;;;;;;;;;5030359;28;20514;-73
2023/03/31 10:40:06;;;;;;;4.03;0.77;;;;;;;;;;5030371;28;20120;-74
2023/03/31 10:42:32;;;;;;;4.10;1.25;;;;;;;;;;5030532;28;20021;-73
2023/03/31 10:45:10;;;;;;;0.70;0.40;;;;;;;;;;5025058;28;20132;-73
2023/03/31 10:47:38;;;;;;;3.40;0.70;;;;;;;;;;5019564;28;20029;-74
2023/03/31 10:50:12;;;;;;;3.40;1.10;;;;;;;;;;5029829;28;20022;-76
2023/03/31 10:52:45;;;;;;;0.68;0.40;;;;;;;;;;5018398;28;20021;-75
2023/03/31 10:55:12;;;;;;;0.55;0.55;;;;;;;;;;5022497;28;20031;-75
2023/03/31 10:57:38;;;;;;;0.52;0.50;;;;;;;;;;5030247;28;20026;-76
2023/03/31 11:00:24;;;;;;;3.95;0.75;;;;;;;;;;5021584;28;20028;-76
2023/03/31 11:02:56;;;;;;;1.33;0.70;;;;;;;;;;5026920;28;20108;-76
2023/03/31 11:05:31;;;;;;;2.17;0.80;;;;;;;;;;5030310;28;20029;-76
2023/03/31 11:08:11;;;;;;;0.68;0.68;;;;;;;;;;5027010;28;20029;-77
2023/03/31 11:10:44;;;;;;;1.55;0.70;;;;;;;;;;5020677;28;20040;-76
2023/03/31 11:13:25;;;;;;;0.98;0.65;;;;;;;;;;5025491;28;20026;-76
2023/03/31 11:15:59;;;;;;;0.85;0.60;;;;;;;;;;5029387;28;20441;-76
2023/03/31 11:18:32;;;;;;;1.65;0.90;;;;;;;;;;5018821;28;20080;-76
2023/03/31 11:21:11;;;;;;;2.42;0.80;;;;;;;;;;5010777;28;20120;-76
2023/03/31 11:23:45;;;;;;;2.83;0.73;;;;;;;;;;5022130;28;20105;-76
2023/03/31 11:26:11;;;;;;;1.00;0.68;;;;;;;;;;5022325;28;20034;-76
2023/03/31 11:28:57;;;;;;;3.13;0.70;;;;;;;;;;5028032;28;20388;-76
2023/03/31 11:31:50;;;;;;;0.47;0.47;;;;;;;;;;5029036;28;20036;-76
2023/03/31 11:34:25;;;;;;;0.35;0.35;;;;;;;;;;4990124;28;20140;-76
2023/03/31 11:36:51;;;;;;;0.77;0.60;;;;;;;;;;5027288;28;20448;-76
2023/03/31 11:39:38;;;;;;;0.75;0.60;;;;;;;;;;5026737;28;20037;-76
2023/03/31 11:42:16;;;;;;;0.80;0.50;;;;;;;;;;5009427;28;20034;-75
2023/03/31 11:44:45;;;;;;;1.10;0.85;;;;;;;;;;5023570;28;20052;-75
2023/03/31 11:47:30;;;;;;;0.50;0.43;;;;;;;;;;5027984;28;20100;-76
2023/03/31 11:50:10;;;;;;;2.13;0.68;;;;;;;;;;5011890;28;20156;-77
2023/03/31 11:52:55;;;;;;;0.63;0.40;;;;;;;;;;5026872;28;20034;-75
2023/03/31 11:55:25;;;;;;;0.50;0.47;;;;;;;;;;5026781;28;20017;-76
2023/03/31 11:57:59;;;;;;;2.72;0.90;;;;;;;;;;5022941;28;20033;-75
2023/03/31 12:00:27;;;;;;;1.35;0.77;;;;;;;;;;5024364;28;20028;-75
2023/03/31 12:03:12;;;;;;;0.70;0.50;;;;;;;;;;5026899;28;20050;-75
2023/03/31 12:05:42;;;;;;;1.58;0.60;;;;;;;;;;5026922;28;20025;-75
2023/03/31 12:08:13;;;;;;;1.07;0.40;;;;;;;;;;5025292;28;20039;-75
2023/03/31 12:10:43;;;;;;;0.80;0.80;;;;;;;;;;5027175;28;20049;-75
2023/03/31 12:13:23;;;;;;;0.50;0.50;;;;;;;;;;5026148;28;20037;-75
2023/03/31 12:16:00;;;;;;;0.82;0.50;;;;;;;;;;5028968;28;20033;-75
2023/03/31 12:18:28;;;;;;;1.45;0.50;;;;;;;;;;5027790;28;20480;-75
2023/03/31 12:20:59;;;;;;;0.60;0.60;;;;;;;;;;5025960;28;20052;-75
2023/03/31 12:23:28;;;;;;;0.93;0.47;;;;;;;;;;5023166;28;20037;-75
2023/03/31 12:25:58;;;;;;;1.02;0.57;;;;;;;;;;5023954;28;20041;-75
2023/03/31 12:28:26;;;;;;;1.23;0.60;;;;;;;;;;5026514;28;20029;-75
2023/03/31 12:30:52;;;;;;;2.20;0.60;;;;;;;;;;5023996;28;20060;-75
2023/03/31 12:33:21;;;;;;;1.60;0.60;;;;;;;;;;5026729;28;20041;-75
2023/03/31 12:35:50;;;;;;;1.83;0.75;;;;;;;;;;5025822;28;20033;-75
2023/03/31 12:38:35;;;;;;;0.85;0.50;;;;;;;;;;5026340;28;20101;-75
2023/03/31 12:41:23;;;;;;;1.88;0.90;;;;;;;;;;5010177;28;20018;-75
2023/03/31 12:44:00;;;;;;;1.10;0.60;;;;;;;;;;5019713;28;20220;-75
2023/03/31 12:46:29;;;;;;;1.00;0.65;;;;;;;;;;5007391;28;20022;-74
2023/03/31 12:49:04;;;;;;;0.70;0.70;;;;;;;;;;5008144;28;20030;-75
2023/03/31 12:51:48;;;;;;;0.57;0.52;;;;;;;;;;5007986;28;20052;-74
2023/03/31 12:54:22;;;;;;;2.28;0.60;;;;;;;;;;5007444;28;20042;-74
2023/03/31 12:57:03;;;;;;;1.00;0.50;;;;;;;;;;4990451;28;20614;-75
2023/03/31 12:59:32;;;;;;;0.85;0.55;;;;;;;;;;5004086;28;20037;-75
2023/03/31 13:02:07;;;;;;;0.63;0.50;;;;;;;;;;5005536;28;20014;-75
2023/03/31 13:04:33;;;;;;;0.95;0.40;;;;;;;;;;5001005;28;20038;-75
2023/03/31 13:06:59;;;;;;;3.10;0.88;;;;;;;;;;5002689;28;20040;-75
2023/03/31 13:09:45;;;;;;;0.93;0.50;;;;;;;;;;5005641;28;20504;-76
2023/03/31 13:12:16;;;;;;;1.65;1.17;;;;;;;;;;5003337;28;20112;-75
2023/03/31 13:14:43;;;;;;;0.70;0.67;;;;;;;;;;4994805;28;20034;-76
2023/03/31 13:17:14;;;;;;;1.08;0.80;;;;;;;;;;4989551;28;20042;-76
2023/03/31 13:19:41;;;;;;;0.80;0.80;;;;;;;;;;4998325;28;20460;-77
2023/03/31 13:22:26;;;;;;;0.82;0.65;;;;;;;;;;4997120;28;20034;-78
2023/03/31 13:24:52;;;;;;;3.50;0.85;;;;;;;;;;5000921;28;20038;-76
2023/03/31 13:27:34;;;;;;;4.13;0.85;;;;;;;;;;4996819;28;20396;-77
2023/03/31 13:30:00;;;;;;;2.40;0.93;;;;;;;;;;5003461;28;20038;-75
2023/03/31 13:32:27;;;;;;;3.20;0.65;;;;;;;;;;5001242;28;20052;-75
2023/03/31 13:35:02;;;;;;;0.50;0.50;;;;;;;;;;5001010;28;20044;-76
2023/03/31 13:37:37;;;;;;;1.60;0.70;;;;;;;;;;5000639;28;20037;-75
2023/03/31 13:40:13;;;;;;;0.95;0.70;;;;;;;;;;4999303;28;20554;-76
2023/03/31 13:43:17;;;;;;;1.30;0.52;;;;;;;;;;4994654;28;20049;-77
2023/03/31 13:45:58;;;;;;;0.80;0.47;;;;;;;;;;4938185;29;20046;-76
2023/03/31 13:51:47;;;;;;;1.00;0.50;;;;;;;;;;5006361;28;20124;-76
2023/03/31 13:54:32;;;;;;;0.50;0.50;;;;;;;;;;5019815;28;20397;-76
2023/03/31 13:57:21;;;;;;;1.88;0.60;;;;;;;;;;5020549;28;20503;-77
2023/03/31 13:59:58;;;;;;;1.20;0.70;;;;;;;;;;5012914;28;20130;-78
2023/03/31 14:02:42;;;;;;;0.80;0.75;;;;;;;;;;5007337;28;20038;-87
2023/03/31 14:05:08;;;;;;;4.63;0.82;;;;;;;;;;5014717;28;20044;-89
2023/03/31 14:07:44;;;;;;;1.95;0.40;;;;;;;;;;5014939;28;20467;-80
2023/03/31 14:10:28;;;;;;;6.80;0.80;;;;;;;;;;5008348;28;20025;-81
2023/03/31 14:13:09;;;;;;;6.07;1.95;;;;;;;;;;5019039;28;20041;-78
2023/03/31 14:15:50;;;;;;;3.92;1.13;;;;;;;;;;5019017;28;20712;-83
2023/03/31 14:18:19;;;;;;;7.10;0.93;;;;;;;;;;5013792;28;20029;-79
2023/03/31 14:20:57;;;;;;;1.75;0.95;;;;;;;;;;5012080;28;20287;-77
2023/03/31 14:23:29;;;;;;;1.73;0.80;;;;;;;;;;5009091;28;20030;-80
2023/03/31 14:26:10;;;;;;;0.82;0.73;;;;;;;;;;5016044;28;20132;-82
2023/03/31 14:28:57;;;;;;;1.83;1.27;;;;;;;;;;5014432;28;20025;-82
2023/03/31 14:31:34;;;;;;;3.90;0.90;;;;;;;;;;5014926;28;20033;-79
2023/03/31 14:34:07;;;;;;;1.05;0.55;;;;;;;;;;5014656;28;20036;-79
2023/03/31 14:36:46;;;;;;;1.27;0.70;;;;;;;;;;5017734;28;20025;-81
2023/03/31 14:39:13;;;;;;;1.13;0.85;;;;;;;;;;5013261;28;20032;-80
2023/03/31 14:41:40;;;;;;;1.90;0.65;;;;;;;;;;5011496;28;20022;-79
2023/03/31 14:44:06;;;;;;;1.60;0.95;;;;;;;;;;5015636;28;20104;-78
2023/03/31 14:46:36;;;;;;;0.63;0.55;;;;;;;;;;5016030;28;20029;-80
2023/03/31 14:49:06;;;;;;;1.90;0.80;;;;;;;;;;5018734;28;20033;-82
2023/03/31 14:51:32;;;;;;;1.02;0.90;;;;;;;;;;5011569;28;20037;-78
2023/03/31 14:53:59;;;;;;;1.45;0.90;;;;;;;;;;5012051;28;20034;-77
2023/03/31 14:56:34;;;;;;;0.80;0.60;;;;;;;;;;5017146;28;20026;-76
2023/03/31 14:59:01;;;;;;;3.83;0.82;;;;;;;;;;5018571;28;20025;-77
2023/03/31 15:01:38;;;;;;;4.50;1.02;;;;;;;;;;5012507;28;20026;-75
2023/03/31 15:04:09;;;;;;;1.27;0.85;;;;;;;;;;5022056;28;20025;-76
2023/03/31 15:06:38;;;;;;;2.83;0.85;;;;;;;;;;5022763;28;20483;-76